createdAt,value
2024-02-23T00:00:43.101Z,76.66
2024-02-23T00:01:45.523Z,77.24
2024-02-23T00:02:46.978Z,77.67
2024-02-23T00:03:50.876Z,77.72
2024-02-23T00:04:58.469Z,79.11
2024-02-23T00:06:00.218Z,77.59
2024-02-23T00:07:03.968Z,79.10
2024-02-23T00:08:05.751Z,81.08
2024-02-23T00:09:07.274Z,79.56
2024-02-23T00:10:09.031Z,78.76
2024-02-23T00:11:10.642Z,77.73
2024-02-23T00:12:12.522Z,78.53
2024-02-23T00:13:14.109Z,78.08
2024-02-23T00:14:16.784Z,76.73
2024-02-23T00:15:18.350Z,75.69
2024-02-23T00:16:20.613Z,75.46
2024-02-23T00:17:23.165Z,76.15
2024-02-23T00:18:24.797Z,75.66
2024-02-23T00:19:26.350Z,74.18
2024-02-23T00:20:27.884Z,75.70
2024-02-23T00:21:29.344Z,76.02
2024-02-23T00:22:30.959Z,75.34
2024-02-23T00:23:32.481Z,74.67
2024-02-23T00:24:34.098Z,74.62
2024-02-23T00:25:35.541Z,74.45
2024-02-23T00:26:36.985Z,73.65
2024-02-23T00:27:40.726Z,73.69
2024-02-23T00:28:42.438Z,72.73
2024-02-23T00:29:43.948Z,72.16
2024-02-23T00:30:45.476Z,72.60
2024-02-23T00:31:46.978Z,71.89
2024-02-23T00:32:48.487Z,72.28
2024-02-23T00:33:50.358Z,72.11
2024-02-23T00:34:52.231Z,73.10
2024-02-23T00:35:53.812Z,73.69
2024-02-23T00:36:55.273Z,72.53
2024-02-23T00:37:56.747Z,72.40
2024-02-23T00:38:58.259Z,72.79
2024-02-23T00:39:59.757Z,72.24
2024-02-23T00:41:01.345Z,72.10
2024-02-23T00:42:03.002Z,73.48
2024-02-23T00:43:05.222Z,74.22
2024-02-23T00:44:07.120Z,72.23
2024-02-23T00:45:09.007Z,73.84
2024-02-23T00:46:10.546Z,75.02
2024-02-23T00:47:12.074Z,73.88
2024-02-23T00:48:14.909Z,72.59
2024-02-23T00:49:16.550Z,72.46
2024-02-23T00:50:18.424Z,72.20
2024-02-23T00:51:19.905Z,72.10
2024-02-23T00:52:21.399Z,72.84
2024-02-23T00:53:23.048Z,73.05
2024-02-23T00:54:24.614Z,73.14
2024-02-23T00:55:27.836Z,72.91
2024-02-23T00:56:35.974Z,72.98
2024-02-23T00:57:42.576Z,73.28
2024-02-23T00:58:44.098Z,72.90
2024-02-23T00:59:45.635Z,73.08
2024-02-23T01:00:47.196Z,73.51
2024-02-23T01:01:48.725Z,73.28
2024-02-23T01:02:50.243Z,73.94
2024-02-23T01:03:51.764Z,73.61
2024-02-23T01:04:57.938Z,74.51
2024-02-23T01:05:59.540Z,73.52
2024-02-23T01:07:01.077Z,73.35
2024-02-23T01:08:02.657Z,72.69
2024-02-23T01:09:05.546Z,72.46
2024-02-23T01:10:07.495Z,73.06
2024-02-23T01:11:09.029Z,73.22
2024-02-23T01:12:10.638Z,74.81
2024-02-23T01:13:12.187Z,72.77
2024-02-23T01:14:13.759Z,72.75
2024-02-23T01:15:15.898Z,73.40
2024-02-23T01:16:17.440Z,73.42
2024-02-23T01:17:18.967Z,72.94
2024-02-23T01:18:20.934Z,72.42
2024-02-23T01:19:24.669Z,73.21
2024-02-23T01:20:26.358Z,73.01
2024-02-23T01:21:27.945Z,72.99
2024-02-23T01:22:29.394Z,73.47
2024-02-23T01:23:30.915Z,74.19
2024-02-23T01:24:32.514Z,73.22
2024-02-23T01:25:36.014Z,73.64
2024-02-23T01:26:39.944Z,73.78
2024-02-23T01:27:45.627Z,73.79
2024-02-23T01:28:47.131Z,73.31
2024-02-23T01:29:48.835Z,73.44
2024-02-23T01:30:50.314Z,73.86
2024-02-23T01:31:52.749Z,74.29
2024-02-23T01:32:54.313Z,74.97
2024-02-23T01:33:55.988Z,74.11
2024-02-23T01:34:57.620Z,74.45
2024-02-23T01:35:59.363Z,73.97
2024-02-23T01:37:00.916Z,75.18
2024-02-23T01:38:02.425Z,73.57
2024-02-23T01:39:05.051Z,73.92
2024-02-23T01:40:07.332Z,74.89
2024-02-23T01:41:08.919Z,74.57
2024-02-23T01:42:12.797Z,75.22
2024-02-23T01:43:14.856Z,74.68
2024-02-23T01:44:18.253Z,75.00
2024-02-23T01:45:19.773Z,75.17
2024-02-23T01:46:21.602Z,75.12
2024-02-23T01:47:24.964Z,75.62
2024-02-23T01:48:27.224Z,75.74
2024-02-23T01:49:33.674Z,75.13
2024-02-23T01:50:35.684Z,75.08
2024-02-23T01:51:37.500Z,74.99
2024-02-23T01:52:39.041Z,75.15
2024-02-23T01:53:41.331Z,75.57
2024-02-23T01:54:43.351Z,75.91
2024-02-23T01:55:46.761Z,75.99
2024-02-23T01:56:48.305Z,76.29
2024-02-23T01:57:50.741Z,75.42
2024-02-23T01:58:53.518Z,75.60
2024-02-23T01:59:56.004Z,74.40
2024-02-23T02:00:57.598Z,74.81
2024-02-23T02:01:59.193Z,75.19
2024-02-23T02:03:00.930Z,75.48
2024-02-23T02:04:02.826Z,76.76
2024-02-23T02:05:04.694Z,75.83
2024-02-23T02:06:11.335Z,75.72
2024-02-23T02:07:13.066Z,75.32
2024-02-23T02:08:14.568Z,75.57
2024-02-23T02:09:16.329Z,73.82
2024-02-23T02:10:18.726Z,74.11
2024-02-23T02:11:20.544Z,74.30
2024-02-23T02:12:28.931Z,74.65
2024-02-23T02:13:31.449Z,75.00
2024-02-23T02:14:34.662Z,75.05
2024-02-23T02:15:36.425Z,75.13
2024-02-23T02:16:38.095Z,75.15
2024-02-23T02:17:39.820Z,75.33
2024-02-23T02:18:41.373Z,75.18
2024-02-23T02:19:48.861Z,74.40
2024-02-23T02:21:00.434Z,73.92
2024-02-23T02:22:01.974Z,74.14
2024-02-23T02:23:04.246Z,74.10
2024-02-23T02:24:06.179Z,73.91
2024-02-23T02:25:07.975Z,73.57
2024-02-23T02:26:09.665Z,73.72
2024-02-23T02:27:11.245Z,73.80
2024-02-23T02:28:12.827Z,73.76
2024-02-23T02:29:15.199Z,73.75
2024-02-23T02:30:16.765Z,73.41
2024-02-23T02:31:18.260Z,73.95
2024-02-23T02:32:19.871Z,74.16
2024-02-23T02:33:22.367Z,74.50
2024-02-23T02:34:24.384Z,74.14
2024-02-23T02:35:26.048Z,74.66
2024-02-23T02:36:27.622Z,74.89
2024-02-23T02:37:29.106Z,74.56
2024-02-23T02:38:30.703Z,74.24
2024-02-23T02:39:32.273Z,74.85
2024-02-23T02:40:33.797Z,74.24
2024-02-23T02:41:35.401Z,73.43
2024-02-23T02:42:36.991Z,74.44
2024-02-23T02:43:38.537Z,74.11
2024-02-23T02:44:40.067Z,74.61
2024-02-23T02:45:41.554Z,75.29
2024-02-23T02:46:43.222Z,74.81
2024-02-23T02:47:44.716Z,73.89
2024-02-23T02:48:46.258Z,74.51
2024-02-23T02:49:49.794Z,73.74
2024-02-23T02:50:54.409Z,74.54
2024-02-23T02:51:56.190Z,74.43
2024-02-23T02:52:57.783Z,74.54
2024-02-23T02:53:59.312Z,74.00
2024-02-23T02:55:00.828Z,74.06
2024-02-23T02:56:02.365Z,74.07
2024-02-23T02:57:03.884Z,74.03
2024-02-23T02:58:05.335Z,74.24
2024-02-23T02:59:06.822Z,74.38
2024-02-23T03:00:11.553Z,74.82
2024-02-23T03:01:13.287Z,74.38
2024-02-23T03:02:15.230Z,72.79
2024-02-23T03:03:16.764Z,72.87
2024-02-23T03:04:18.329Z,73.56
2024-02-23T03:05:19.950Z,73.53
2024-02-23T03:06:21.697Z,74.42
2024-02-23T03:07:23.221Z,73.98
2024-02-23T03:08:24.771Z,73.61
2024-02-23T03:09:26.347Z,73.72
2024-02-23T03:10:28.047Z,74.04
2024-02-23T03:11:29.586Z,73.95
2024-02-23T03:12:31.160Z,73.72
2024-02-23T03:13:32.897Z,73.55
2024-02-23T03:14:38.270Z,73.78
2024-02-23T03:15:40.531Z,73.54
2024-02-23T03:16:43.086Z,73.37
2024-02-23T03:17:44.663Z,72.89
2024-02-23T03:18:46.958Z,73.29
2024-02-23T03:19:48.627Z,73.15
2024-02-23T03:20:50.371Z,73.41
2024-02-23T03:21:51.992Z,73.28
2024-02-23T03:22:53.493Z,73.06
2024-02-23T03:23:55.051Z,72.32
2024-02-23T03:24:56.573Z,73.14
2024-02-23T03:25:58.273Z,71.58
2024-02-23T03:27:00.034Z,71.79
2024-02-23T03:28:01.666Z,72.78
2024-02-23T03:29:03.241Z,72.59
2024-02-23T03:30:06.161Z,72.60
2024-02-23T03:31:07.692Z,73.85
2024-02-23T03:32:09.358Z,74.68
2024-02-23T03:33:11.113Z,73.58
2024-02-23T03:34:14.316Z,72.62
2024-02-23T03:35:16.066Z,73.78
2024-02-23T03:36:17.551Z,73.20
2024-02-23T03:37:19.077Z,73.80
2024-02-23T03:38:20.668Z,72.95
2024-02-23T03:39:22.256Z,73.50
2024-02-23T03:40:23.768Z,73.37
2024-02-23T03:41:25.550Z,74.06
2024-02-23T03:42:27.664Z,74.23
2024-02-23T03:43:30.658Z,73.21
2024-02-23T03:44:33.476Z,73.56
2024-02-23T03:45:35.032Z,73.68
2024-02-23T03:46:36.688Z,73.96
2024-02-23T03:47:39.984Z,74.28
2024-02-23T03:48:41.758Z,73.14
2024-02-23T03:49:43.298Z,72.81
2024-02-23T03:50:44.839Z,72.61
2024-02-23T03:51:48.831Z,72.00
2024-02-23T03:52:50.366Z,73.10
2024-02-23T03:53:51.887Z,72.86
2024-02-23T03:54:55.136Z,73.57
2024-02-23T03:55:58.256Z,73.05
2024-02-23T03:56:59.966Z,73.60
2024-02-23T03:58:01.417Z,72.39
2024-02-23T03:59:02.958Z,71.58
2024-02-23T04:00:05.441Z,72.47
2024-02-23T04:01:06.933Z,72.72
2024-02-23T04:02:08.493Z,72.56
2024-02-23T04:03:10.075Z,72.73
2024-02-23T04:04:11.603Z,72.34
2024-02-23T04:05:13.790Z,72.46
2024-02-23T04:06:15.331Z,72.41
2024-02-23T04:07:16.984Z,73.25
2024-02-23T04:08:18.503Z,73.66
2024-02-23T04:09:20.128Z,72.76
2024-02-23T04:10:21.654Z,72.87
2024-02-23T04:11:23.440Z,72.05
2024-02-23T04:12:25.802Z,71.99
2024-02-23T04:13:27.406Z,71.42
2024-02-23T04:14:28.924Z,72.31
2024-02-23T04:15:30.453Z,71.85
2024-02-23T04:16:32.849Z,72.43
2024-02-23T04:17:34.438Z,71.75
2024-02-23T04:18:35.960Z,71.41
2024-02-23T04:19:37.531Z,73.04
2024-02-23T04:20:39.128Z,72.88
2024-02-23T04:21:40.951Z,73.12
2024-02-23T04:22:42.504Z,73.25
2024-02-23T04:23:47.084Z,72.32
2024-02-23T04:24:48.661Z,71.93
2024-02-23T04:25:52.169Z,71.66
2024-02-23T04:26:53.957Z,72.45
2024-02-23T04:27:55.450Z,72.41
2024-02-23T04:28:56.929Z,71.75
2024-02-23T04:29:58.517Z,71.32
2024-02-23T04:31:00.545Z,71.40
2024-02-23T04:32:02.640Z,71.40
2024-02-23T04:33:04.449Z,70.96
2024-02-23T04:34:06.158Z,71.50
2024-02-23T04:35:08.168Z,70.52
2024-02-23T04:36:09.759Z,71.07
2024-02-23T04:37:11.243Z,71.09
2024-02-23T04:38:12.744Z,71.90
2024-02-23T04:39:14.258Z,71.62
2024-02-23T04:40:15.883Z,71.33
2024-02-23T04:41:21.852Z,71.48
2024-02-23T04:42:23.428Z,71.16
2024-02-23T04:43:25.560Z,70.60
2024-02-23T04:44:27.030Z,70.68
2024-02-23T04:45:28.608Z,70.31
2024-02-23T04:46:31.065Z,70.44
2024-02-23T04:47:33.727Z,70.74
2024-02-23T04:48:37.308Z,70.99
2024-02-23T04:49:38.849Z,71.08
2024-02-23T04:50:40.372Z,71.22
2024-02-23T04:51:41.876Z,71.54
2024-02-23T04:52:43.352Z,71.12
2024-02-23T04:53:44.824Z,70.78
2024-02-23T04:54:46.329Z,70.32
2024-02-23T04:55:47.810Z,70.29
2024-02-23T04:56:49.284Z,70.26
2024-02-23T04:57:52.849Z,70.70
2024-02-23T04:58:54.412Z,70.69
2024-02-23T04:59:55.958Z,70.80
2024-02-23T05:00:57.396Z,70.23
2024-02-23T05:01:59.389Z,70.50
2024-02-23T05:03:04.380Z,70.43
2024-02-23T05:04:06.161Z,70.67
2024-02-23T05:05:08.909Z,69.86
2024-02-23T05:06:10.495Z,70.66
2024-02-23T05:07:12.038Z,70.40
2024-02-23T05:08:13.536Z,70.54
2024-02-23T05:09:15.097Z,71.39
2024-02-23T05:10:18.185Z,70.44
2024-02-23T05:11:19.680Z,70.44
2024-02-23T05:12:21.286Z,70.69
2024-02-23T05:13:22.762Z,71.03
2024-02-23T05:14:24.399Z,71.14
2024-02-23T05:15:25.884Z,71.33
2024-02-23T05:16:27.457Z,71.25
2024-02-23T05:17:31.724Z,71.41
2024-02-23T05:18:33.218Z,72.31
2024-02-23T05:19:34.812Z,72.25
2024-02-23T05:20:36.470Z,72.44
2024-02-23T05:21:37.964Z,72.59
2024-02-23T05:22:40.472Z,72.42
2024-02-23T05:23:42.130Z,72.47
2024-02-23T05:24:45.683Z,72.21
2024-02-23T05:25:47.172Z,73.42
2024-02-23T05:26:49.088Z,73.36
2024-02-23T05:27:50.658Z,73.34
2024-02-23T05:28:52.358Z,73.26
2024-02-23T05:29:54.215Z,73.57
2024-02-23T05:30:57.330Z,73.94
2024-02-23T05:32:00.970Z,73.82
2024-02-23T05:33:04.465Z,74.05
2024-02-23T05:34:12.835Z,73.47
2024-02-23T05:35:14.414Z,74.19
2024-02-23T05:36:16.942Z,73.98
2024-02-23T05:37:18.724Z,74.23
2024-02-23T05:38:20.292Z,75.00
2024-02-23T05:39:21.868Z,74.51
2024-02-23T05:40:23.437Z,74.09
2024-02-23T05:41:25.247Z,74.57
2024-02-23T05:42:27.654Z,74.86
2024-02-23T05:43:29.238Z,74.35
2024-02-23T05:44:30.762Z,74.33
2024-02-23T05:45:32.320Z,74.07
2024-02-23T05:46:34.463Z,73.83
2024-02-23T05:47:37.680Z,74.33
2024-02-23T05:48:39.273Z,74.93
2024-02-23T05:49:41.198Z,74.74
2024-02-23T05:50:42.751Z,74.96
2024-02-23T05:51:44.641Z,74.30
2024-02-23T05:52:46.197Z,74.21
2024-02-23T05:53:47.650Z,75.20
2024-02-23T05:54:52.592Z,75.26
2024-02-23T05:55:54.568Z,75.50
2024-02-23T05:56:56.143Z,75.21
2024-02-23T05:58:00.806Z,75.97
2024-02-23T05:59:02.354Z,75.26
2024-02-23T06:00:05.149Z,75.75
2024-02-23T06:01:06.787Z,75.92
2024-02-23T06:02:08.369Z,75.82
2024-02-23T06:03:09.878Z,76.57
2024-02-23T06:04:11.345Z,77.01
2024-02-23T06:05:13.842Z,76.52
2024-02-23T06:06:15.984Z,75.46
2024-02-23T06:07:17.796Z,76.08
2024-02-23T06:08:19.324Z,76.49
2024-02-23T06:09:20.816Z,77.00
2024-02-23T06:10:22.314Z,77.05
2024-02-23T06:11:23.860Z,76.69
2024-02-23T06:12:25.946Z,75.95
2024-02-23T06:13:27.453Z,76.32
2024-02-23T06:14:28.982Z,75.85
2024-02-23T06:15:30.539Z,75.85
2024-02-23T06:16:32.054Z,75.80
2024-02-23T06:17:33.732Z,75.79
2024-02-23T06:18:35.565Z,75.94
2024-02-23T06:19:37.330Z,76.69
2024-02-23T06:20:39.076Z,76.81
2024-02-23T06:21:40.724Z,76.34
2024-02-23T06:22:42.214Z,76.67
2024-02-23T06:23:44.089Z,76.03
2024-02-23T06:24:45.583Z,76.03
2024-02-23T06:25:47.730Z,75.98
2024-02-23T06:26:50.337Z,75.83
2024-02-23T06:27:51.808Z,75.78
2024-02-23T06:28:53.377Z,75.25
2024-02-23T06:29:55.050Z,75.35
2024-02-23T06:30:56.536Z,75.96
2024-02-23T06:31:58.125Z,75.23
2024-02-23T06:32:59.704Z,75.51
2024-02-23T06:34:01.430Z,75.66
2024-02-23T06:35:04.123Z,75.43
2024-02-23T06:36:06.243Z,74.95
2024-02-23T06:37:07.772Z,75.30
2024-02-23T06:38:09.267Z,75.50
2024-02-23T06:39:11.931Z,74.78
2024-02-23T06:40:13.637Z,74.22
2024-02-23T06:41:15.481Z,74.72
2024-02-23T06:42:17.083Z,74.86
2024-02-23T06:43:21.266Z,74.39
2024-02-23T06:44:24.657Z,74.44
2024-02-23T06:45:27.013Z,74.27
2024-02-23T06:46:28.469Z,73.24
2024-02-23T06:47:30.071Z,73.10
2024-02-23T06:48:31.765Z,72.46
2024-02-23T06:49:33.461Z,72.54
2024-02-23T06:50:35.096Z,72.65
2024-02-23T06:51:36.546Z,73.20
2024-02-23T06:52:38.539Z,72.22
2024-02-23T06:53:40.106Z,72.15
2024-02-23T06:54:41.704Z,72.33
2024-02-23T06:55:43.144Z,72.44
2024-02-23T06:56:44.643Z,72.18
2024-02-23T06:57:46.127Z,72.39
2024-02-23T06:58:47.615Z,71.89
2024-02-23T06:59:49.040Z,71.50
2024-02-23T07:00:50.591Z,71.71
2024-02-23T07:01:52.921Z,71.92
2024-02-23T07:02:54.491Z,71.15
2024-02-23T07:03:56.001Z,71.29
2024-02-23T07:04:58.018Z,71.34
2024-02-23T07:06:00.107Z,72.14
2024-02-23T07:07:07.692Z,71.23
2024-02-23T07:08:09.447Z,70.53
2024-02-23T07:09:12.566Z,70.76
2024-02-23T07:10:14.422Z,70.71
2024-02-23T07:11:16.069Z,70.19
2024-02-23T07:12:17.730Z,70.86
2024-02-23T07:13:20.560Z,71.11
2024-02-23T07:14:23.226Z,71.24
2024-02-23T07:15:25.742Z,71.40
2024-02-23T07:16:27.259Z,71.24
2024-02-23T07:17:29.458Z,70.93
2024-02-23T07:18:31.088Z,70.84
2024-02-23T07:19:32.606Z,70.46
2024-02-23T07:20:34.201Z,70.60
2024-02-23T07:21:35.700Z,70.15
2024-02-23T07:22:37.614Z,69.65
2024-02-23T07:23:39.503Z,69.99
2024-02-23T07:24:42.089Z,69.79
2024-02-23T07:25:43.627Z,69.99
2024-02-23T07:26:45.058Z,69.77
2024-02-23T07:27:46.645Z,69.93
2024-02-23T07:28:48.086Z,69.95
2024-02-23T07:29:50.128Z,70.26
2024-02-23T07:30:52.256Z,69.62
2024-02-23T07:31:57.099Z,69.29
2024-02-23T07:32:58.678Z,70.28
2024-02-23T07:34:00.540Z,69.58
2024-02-23T07:35:02.145Z,69.17
2024-02-23T07:36:03.955Z,68.81
2024-02-23T07:37:05.483Z,68.47
2024-02-23T07:38:06.987Z,68.00
2024-02-23T07:39:08.456Z,68.08
2024-02-23T07:40:10.347Z,68.99
2024-02-23T07:41:14.301Z,69.18
2024-02-23T07:42:19.691Z,69.16
2024-02-23T07:43:21.206Z,68.33
2024-02-23T07:44:22.780Z,68.44
2024-02-23T07:45:27.603Z,67.93
2024-02-23T07:46:29.494Z,68.42
2024-02-23T07:47:32.523Z,67.92
2024-02-23T07:48:34.392Z,67.58
2024-02-23T07:49:36.145Z,67.94
2024-02-23T07:50:37.961Z,68.64
2024-02-23T07:51:39.494Z,68.81
2024-02-23T07:52:41.016Z,68.65
2024-02-23T07:53:42.590Z,68.54
2024-02-23T07:54:44.068Z,68.38
2024-02-23T07:55:45.679Z,68.12
2024-02-23T07:56:47.123Z,68.76
2024-02-23T07:57:48.960Z,68.82
2024-02-23T07:58:50.475Z,68.65
2024-02-23T07:59:52.183Z,68.15
2024-02-23T08:00:54.195Z,68.12
2024-02-23T08:01:56.803Z,67.93
2024-02-23T08:02:58.638Z,67.76
2024-02-23T08:04:00.132Z,67.99
2024-02-23T08:05:02.215Z,68.42
2024-02-23T08:06:04.370Z,67.57
2024-02-23T08:07:06.096Z,67.71
2024-02-23T08:08:08.230Z,68.12
2024-02-23T08:09:10.519Z,68.14
2024-02-23T08:10:14.032Z,67.22
2024-02-23T08:11:15.609Z,67.49
2024-02-23T08:12:17.472Z,67.69
2024-02-23T08:13:19.116Z,67.14
2024-02-23T08:14:20.703Z,67.09
2024-02-23T08:15:22.339Z,67.46
2024-02-23T08:16:26.296Z,67.26
2024-02-23T08:17:27.951Z,67.50
2024-02-23T08:18:29.481Z,67.17
2024-02-23T08:19:31.049Z,67.35
2024-02-23T08:20:32.734Z,67.51
2024-02-23T08:21:34.266Z,67.07
2024-02-23T08:22:35.805Z,67.26
2024-02-23T08:23:37.847Z,67.34
2024-02-23T08:24:39.389Z,67.67
2024-02-23T08:25:40.943Z,67.55
2024-02-23T08:26:43.146Z,66.70
2024-02-23T08:27:44.817Z,67.41
2024-02-23T08:28:46.397Z,68.16
2024-02-23T08:29:47.887Z,67.46
2024-02-23T08:30:49.786Z,67.15
2024-02-23T08:31:51.298Z,67.90
2024-02-23T08:32:53.137Z,67.71
2024-02-23T08:33:54.867Z,67.36
2024-02-23T08:35:00.644Z,66.54
2024-02-23T08:36:02.815Z,66.98
2024-02-23T08:37:04.672Z,65.30
2024-02-23T08:38:06.324Z,65.28
2024-02-23T08:39:10.090Z,64.81
2024-02-23T08:40:13.304Z,65.81
2024-02-23T08:41:14.914Z,65.35
2024-02-23T08:42:16.477Z,64.29
2024-02-23T08:43:18.033Z,63.73
2024-02-23T08:44:19.629Z,64.36
2024-02-23T08:45:21.265Z,62.78
2024-02-23T08:46:22.852Z,63.49
2024-02-23T08:47:24.399Z,63.24
2024-02-23T08:48:26.043Z,62.94
2024-02-23T08:49:27.607Z,62.65
2024-02-23T08:50:29.262Z,63.22
2024-02-23T08:51:30.890Z,63.99
2024-02-23T08:52:32.463Z,64.25
2024-02-23T08:53:34.083Z,64.10
2024-02-23T08:54:35.622Z,63.67
2024-02-23T08:55:37.107Z,64.03
2024-02-23T08:56:43.792Z,62.97
2024-02-23T08:57:45.484Z,63.20
2024-02-23T08:58:47.065Z,62.55
2024-02-23T08:59:48.812Z,63.35
2024-02-23T09:00:50.432Z,62.37
2024-02-23T09:01:52.176Z,61.55
2024-02-23T09:02:53.845Z,61.42
2024-02-23T09:03:55.862Z,61.06
2024-02-23T09:04:57.737Z,62.16
2024-02-23T09:05:59.694Z,62.39
2024-02-23T09:07:01.594Z,62.57
2024-02-23T09:08:03.535Z,61.83
2024-02-23T09:09:05.088Z,62.12
2024-02-23T09:10:06.934Z,61.96
2024-02-23T09:11:08.519Z,62.26
2024-02-23T09:12:11.883Z,62.18
2024-02-23T09:13:13.732Z,62.78
2024-02-23T09:14:15.236Z,61.69
2024-02-23T09:15:16.829Z,62.07
2024-02-23T09:16:18.739Z,61.85
2024-02-23T09:17:21.877Z,61.94
2024-02-23T09:18:23.473Z,60.73
2024-02-23T09:19:25.107Z,60.96
2024-02-23T09:20:28.988Z,60.94
2024-02-23T09:21:31.069Z,61.30
2024-02-23T09:22:32.584Z,61.29
2024-02-23T09:23:34.282Z,61.05
2024-02-23T09:24:36.228Z,61.18
2024-02-23T09:25:38.046Z,60.20
2024-02-23T09:26:40.624Z,60.35
2024-02-23T09:27:44.767Z,60.64
2024-02-23T09:28:46.530Z,61.00
2024-02-23T09:29:47.999Z,61.05
2024-02-23T09:30:49.503Z,60.11
2024-02-23T09:31:51.078Z,60.58
2024-02-23T09:32:52.726Z,60.39
2024-02-23T09:33:56.355Z,61.35
2024-02-23T09:34:58.066Z,60.97
2024-02-23T09:35:59.791Z,59.62
2024-02-23T09:37:01.358Z,59.25
2024-02-23T09:38:03.729Z,60.18
2024-02-23T09:39:05.850Z,59.47
2024-02-23T09:40:08.120Z,59.18
2024-02-23T09:41:20.451Z,59.37
2024-02-23T09:42:27.147Z,59.26
2024-02-23T09:43:31.459Z,59.82
2024-02-23T09:44:37.555Z,59.82
2024-02-23T09:45:39.199Z,59.93
2024-02-23T09:46:41.515Z,59.16
2024-02-23T09:47:44.289Z,59.18
2024-02-23T09:48:47.007Z,58.93
2024-02-23T09:49:51.421Z,57.98
2024-02-23T09:50:53.701Z,59.95
2024-02-23T09:51:56.062Z,57.51
2024-02-23T09:53:00.153Z,58.62
2024-02-23T09:54:02.210Z,58.58
2024-02-23T09:55:04.955Z,58.21
2024-02-23T09:56:07.601Z,58.75
2024-02-23T09:57:10.307Z,57.91
2024-02-23T09:58:16.003Z,59.26
2024-02-23T09:59:17.792Z,59.30
2024-02-23T10:00:19.691Z,59.19
2024-02-23T10:01:34.170Z,60.11
2024-02-23T10:02:37.193Z,59.59
2024-02-23T10:03:39.200Z,58.94
2024-02-23T10:04:42.570Z,59.35
2024-02-23T10:05:45.603Z,59.26
2024-02-23T10:06:47.272Z,59.49
2024-02-23T10:07:48.991Z,59.79
2024-02-23T10:08:50.600Z,60.72
2024-02-23T10:09:52.168Z,58.73
2024-02-23T10:10:53.842Z,58.92
2024-02-23T10:11:56.334Z,59.71
2024-02-23T10:12:58.903Z,59.26
2024-02-23T10:14:00.484Z,59.73
2024-02-23T10:15:04.981Z,60.84
2024-02-23T10:16:14.855Z,59.56
2024-02-23T10:17:17.475Z,62.14
2024-02-23T10:18:19.641Z,60.90
2024-02-23T10:19:21.557Z,61.09
2024-02-23T10:20:23.305Z,61.29
2024-02-23T10:21:26.544Z,61.61
2024-02-23T10:22:29.786Z,62.35
2024-02-23T10:23:32.395Z,61.42
2024-02-23T10:24:35.032Z,62.00
2024-02-23T10:25:37.609Z,61.03
2024-02-23T10:26:39.200Z,61.94
2024-02-23T10:27:42.702Z,62.72
2024-02-23T10:28:44.291Z,61.91
2024-02-23T10:29:45.903Z,60.12
2024-02-23T10:30:49.119Z,61.22
2024-02-23T10:31:53.440Z,61.07
2024-02-23T10:32:58.037Z,59.38
2024-02-23T10:34:00.015Z,62.08
2024-02-23T10:35:05.285Z,61.11
2024-02-23T10:36:09.774Z,61.68
2024-02-23T10:37:11.422Z,61.40
2024-02-23T10:38:16.769Z,60.93
2024-02-23T10:39:23.846Z,61.22
2024-02-23T10:40:28.065Z,60.48
2024-02-23T10:41:35.526Z,59.89
2024-02-23T10:42:39.094Z,59.74
2024-02-23T10:43:45.869Z,58.44
2024-02-23T10:44:47.668Z,59.18
2024-02-23T10:45:50.255Z,61.28
2024-02-23T10:46:53.652Z,60.79
2024-02-23T10:47:59.714Z,61.29
2024-02-23T10:49:04.091Z,62.32
2024-02-23T10:50:08.203Z,61.06
2024-02-23T10:51:12.044Z,62.48
2024-02-23T10:52:14.859Z,60.82
2024-02-23T10:53:18.100Z,61.41
2024-02-23T10:54:21.296Z,60.58
2024-02-23T10:55:24.136Z,61.24
2024-02-23T10:56:27.089Z,61.51
2024-02-23T10:57:28.536Z,61.45
2024-02-23T10:58:30.032Z,60.18
2024-02-23T10:59:32.280Z,60.49
2024-02-23T11:00:33.934Z,59.71
2024-02-23T11:01:37.532Z,60.13
2024-02-23T11:02:46.616Z,60.51
2024-02-23T11:03:51.711Z,60.83
2024-02-23T11:04:58.733Z,61.63
2024-02-23T11:06:01.066Z,61.46
2024-02-23T11:07:06.465Z,61.55
2024-02-23T11:08:08.809Z,59.42
2024-02-23T11:09:14.561Z,58.89
2024-02-23T11:10:17.255Z,59.94
2024-02-23T11:11:21.691Z,59.40
2024-02-23T11:12:25.701Z,59.24
2024-02-23T11:14:16.711Z,59.97
2024-02-23T11:15:43.942Z,59.77
2024-02-23T11:16:45.504Z,59.47
2024-02-23T11:17:51.300Z,59.66
2024-02-23T11:19:06.015Z,60.94
2024-02-23T11:20:09.277Z,59.99
2024-02-23T11:21:11.779Z,59.17
2024-02-23T11:22:19.943Z,58.75
2024-02-23T11:23:27.707Z,59.60
2024-02-23T11:24:33.489Z,58.96
2024-02-23T11:25:36.787Z,58.67
2024-02-23T11:26:38.977Z,58.95
2024-02-23T11:27:43.746Z,58.01
2024-02-23T11:28:55.265Z,57.07
2024-02-23T11:30:05.193Z,57.85
2024-02-23T11:31:13.268Z,57.65
2024-02-23T11:32:15.979Z,58.44
2024-02-23T11:33:27.452Z,57.97
2024-02-23T11:34:29.616Z,57.67
2024-02-23T11:35:31.325Z,57.80
2024-02-23T11:36:34.389Z,56.88
2024-02-23T11:37:45.296Z,56.71
2024-02-23T11:38:47.409Z,56.57
2024-02-23T11:39:49.454Z,56.68
2024-02-23T11:40:53.610Z,56.36
2024-02-23T11:41:55.496Z,56.09
2024-02-23T11:42:57.296Z,55.33
2024-02-23T11:44:01.758Z,56.52
2024-02-23T11:45:04.029Z,56.60
2024-02-23T11:46:05.585Z,56.21
2024-02-23T11:47:08.118Z,56.16
2024-02-23T11:48:09.725Z,56.65
2024-02-23T11:49:11.425Z,56.56
2024-02-23T11:50:14.029Z,55.08
2024-02-23T11:51:16.743Z,56.42
2024-02-23T11:52:18.419Z,55.65
2024-02-23T11:53:21.877Z,54.69
2024-02-23T11:54:23.952Z,55.71
2024-02-23T11:55:25.542Z,55.20
2024-02-23T11:56:27.620Z,55.07
2024-02-23T11:57:30.949Z,56.54
2024-02-23T11:58:36.205Z,55.50
2024-02-23T11:59:37.820Z,56.41
2024-02-23T12:00:41.114Z,55.49
2024-02-23T12:01:42.990Z,55.03
2024-02-23T12:02:49.916Z,55.89
2024-02-23T12:03:52.014Z,55.64
2024-02-23T12:04:53.785Z,56.34
2024-02-23T12:05:58.363Z,56.81
2024-02-23T12:07:00.530Z,55.63
2024-02-23T12:08:02.884Z,56.31
2024-02-23T12:09:06.000Z,55.09
2024-02-23T12:10:08.523Z,55.19
2024-02-23T12:11:11.042Z,56.22
2024-02-23T12:12:13.398Z,55.02
2024-02-23T12:13:15.064Z,55.45
2024-02-23T12:14:17.717Z,55.51
2024-02-23T12:15:19.298Z,55.80
2024-02-23T12:16:23.305Z,55.60
2024-02-23T12:17:28.330Z,55.75
2024-02-23T12:18:32.970Z,54.89
2024-02-23T12:19:39.033Z,55.07
2024-02-23T12:20:40.702Z,55.12
2024-02-23T12:21:46.841Z,55.34
2024-02-23T12:22:48.966Z,56.96
2024-02-23T12:23:51.670Z,57.03
2024-02-23T12:24:53.241Z,55.76
2024-02-23T12:25:58.098Z,56.42
2024-02-23T12:26:59.673Z,56.98
2024-02-23T12:28:01.475Z,56.53
2024-02-23T12:29:04.156Z,56.18
2024-02-23T12:30:06.713Z,56.29
2024-02-23T12:31:08.545Z,55.90
2024-02-23T12:32:10.183Z,55.73
2024-02-23T12:33:12.370Z,56.34
2024-02-23T12:34:14.634Z,55.96
2024-02-23T12:35:17.495Z,55.87
2024-02-23T12:36:19.414Z,55.59
2024-02-23T12:37:23.640Z,56.45
2024-02-23T12:38:25.795Z,57.10
2024-02-23T12:39:27.778Z,56.27
2024-02-23T12:40:30.311Z,56.66
2024-02-23T12:41:32.501Z,55.59
2024-02-23T12:42:34.119Z,55.79
2024-02-23T12:43:37.049Z,55.44
2024-02-23T12:44:40.233Z,56.05
2024-02-23T12:45:41.823Z,55.51
2024-02-23T12:46:43.504Z,55.35
2024-02-23T12:47:45.066Z,55.49
2024-02-23T12:48:46.782Z,56.26
2024-02-23T12:49:48.310Z,55.94
2024-02-23T12:50:50.640Z,56.48
2024-02-23T12:51:52.281Z,57.20
2024-02-23T12:52:56.862Z,57.36
2024-02-23T12:53:58.458Z,56.62
2024-02-23T12:54:59.941Z,57.07
2024-02-23T12:56:06.330Z,57.21
2024-02-23T12:57:08.346Z,58.35
2024-02-23T12:58:09.865Z,58.61
2024-02-23T12:59:11.352Z,58.50
2024-02-23T13:00:13.617Z,58.16
2024-02-23T13:01:15.262Z,58.25
2024-02-23T13:02:17.040Z,58.40
2024-02-23T13:03:18.614Z,59.16
2024-02-23T13:04:20.154Z,58.84
2024-02-23T13:05:21.671Z,59.06
2024-02-23T13:06:23.300Z,59.02
2024-02-23T13:07:24.745Z,58.90
2024-02-23T13:08:29.181Z,58.88
2024-02-23T13:09:30.702Z,59.64
2024-02-23T13:10:32.606Z,59.50
2024-02-23T13:11:35.767Z,59.32
2024-02-23T13:12:37.304Z,59.00
2024-02-23T13:13:40.353Z,59.79
2024-02-23T13:14:43.346Z,59.79
2024-02-23T13:15:45.805Z,60.23
2024-02-23T13:16:47.342Z,58.98
2024-02-23T13:17:48.905Z,59.62
2024-02-23T13:18:50.460Z,60.06
2024-02-23T13:20:00.849Z,60.08
2024-02-23T13:21:09.849Z,59.77
2024-02-23T13:22:11.393Z,58.48
2024-02-23T13:23:13.683Z,58.05
2024-02-23T13:24:15.221Z,58.95
2024-02-23T13:25:16.860Z,58.74